Time;durP1;ratioP1;P1;durP2;ratioP2;P2;SDS_P1;SDS_P2;PMS_P1;PMS_P2;Temp;Humidity;BMP_temperature;BMP_pressure;BME280_temperature;BME280_humidity;BME280_pressure;Samples;Min_cycle;Max_cycle;Signal;HPM_P1;HPM_P2
2023/09/02 00:00:49;;;;;;;3.03;1.50;;;15.70;58.50;;;;;;5071896;28;20576;-66
2023/09/02 00:03:16;;;;;;;5.73;1.60;;;15.70;58.20;;;;;;5067621;28;20197;-66
2023/09/02 00:05:43;;;;;;;6.10;2.13;;;16.00;58.60;;;;;;5071129;28;20186;-65
2023/09/02 00:08:10;;;;;;;5.37;1.47;;;16.30;58.60;;;;;;5073838;28;20700;-65
2023/09/02 00:10:38;;;;;;;4.93;1.37;;;16.30;58.50;;;;;;5065456;28;20599;-66
2023/09/02 00:13:05;;;;;;;4.17;1.73;;;16.40;58.90;;;;;;5068096;28;20197;-65
2023/09/02 00:15:32;;;;;;;8.77;1.87;;;16.50;57.80;;;;;;5068914;28;20178;-66
2023/09/02 00:18:00;;;;;;;6.23;1.63;;;16.40;57.90;;;;;;5068829;28;20186;-67
2023/09/02 00:20:27;;;;;;;7.80;1.63;;;16.30;57.80;;;;;;5072195;28;20247;-64
2023/09/02 00:22:54;;;;;;;5.40;2.23;;;16.30;58.30;;;;;;5068598;28;20228;-65
2023/09/02 00:25:24;;;;;;;4.57;1.53;;;16.70;56.90;;;;;;5070171;28;20240;-65
2023/09/02 00:27:52;;;;;;;5.13;1.83;;;16.40;57.50;;;;;;5072919;28;20272;-64
2023/09/02 00:30:20;;;;;;;6.23;2.07;;;16.80;57.00;;;;;;5069516;28;20178;-65
2023/09/02 00:32:47;;;;;;;5.07;1.70;;;17.00;56.80;;;;;;5070516;28;20178;-65
2023/09/02 00:35:15;;;;;;;4.23;1.40;;;17.00;55.90;;;;;;5068456;28;20262;-66
2023/09/02 00:37:42;;;;;;;5.13;1.70;;;17.30;56.80;;;;;;5070011;28;20769;-65
2023/09/02 00:40:14;;;;;;;3.80;1.40;;;17.60;55.40;;;;;;5067093;28;20230;-65
2023/09/02 00:42:42;;;;;;;7.13;1.70;;;17.60;55.40;;;;;;5070707;28;20191;-66
2023/09/02 00:45:10;;;;;;;7.10;1.27;;;17.60;55.20;;;;;;5067609;28;20186;-65
2023/09/02 00:47:38;;;;;;;8.90;1.20;;;17.80;55.50;;;;;;5065400;28;20191;-65
2023/09/02 00:50:06;;;;;;;9.53;2.43;;;17.80;54.60;;;;;;5066878;28;20245;-66
2023/09/02 00:52:34;;;;;;;7.40;1.60;;;18.00;54.20;;;;;;5070020;28;20183;-66
2023/09/02 00:55:03;;;;;;;6.37;1.93;;;17.70;55.20;;;;;;5067673;28;20191;-65
2023/09/02 00:57:31;;;;;;;6.07;1.43;;;17.80;55.30;;;;;;5069259;28;20221;-66
2023/09/02 00:59:59;;;;;;;5.40;1.67;;;17.80;55.70;;;;;;5070945;28;20194;-68
2023/09/02 01:02:27;;;;;;;5.63;1.47;;;18.00;55.60;;;;;;5071174;28;20190;-66
2023/09/02 01:04:55;;;;;;;7.57;1.33;;;17.90;55.50;;;;;;5068324;28;20190;-66
2023/09/02 01:07:24;;;;;;;5.70;1.30;;;18.10;55.40;;;;;;5071226;28;20190;-65
2023/09/02 01:09:51;;;;;;;9.13;1.90;;;18.00;54.80;;;;;;5067373;28;20364;-68
2023/09/02 01:12:19;;;;;;;9.17;2.47;;;18.10;55.10;;;;;;5070254;28;20179;-66
2023/09/02 01:14:46;;;;;;;6.50;1.70;;;18.30;54.80;;;;;;5071304;28;20190;-67
2023/09/02 01:17:14;;;;;;;5.10;1.27;;;18.30;54.30;;;;;;5067659;28;20183;-67
2023/09/02 01:19:43;;;;;;;6.57;1.60;;;18.30;53.90;;;;;;5068105;28;20722;-67
2023/09/02 01:22:31;;;;;;;6.80;1.30;;;18.30;54.10;;;;;;5071173;28;20226;-66
2023/09/02 01:25:13;;;;;;;4.77;1.50;;;18.30;54.30;;;;;;5072929;28;20649;-67
2023/09/02 01:27:46;;;;;;;8.00;1.63;;;18.40;53.50;;;;;;5070365;28;20171;-66
2023/09/02 01:30:19;;;;;;;6.30;1.30;;;18.50;53.50;;;;;;5071155;28;20653;-65
2023/09/02 01:32:52;;;;;;;4.20;1.60;;;18.40;53.60;;;;;;5071206;28;20326;-67
2023/09/02 01:35:24;;;;;;;4.57;1.57;;;18.40;52.40;;;;;;5068449;28;20190;-65
2023/09/02 01:37:58;;;;;;;10.30;2.10;;;18.50;53.40;;;;;;5068771;28;20220;-67
2023/09/02 01:40:27;;;;;;;6.60;1.80;;;18.70;53.80;;;;;;5069671;28;20227;-67
2023/09/02 01:42:59;;;;;;;6.13;1.90;;;18.80;53.60;;;;;;5070086;28;20190;-68
2023/09/02 01:45:30;;;;;;;6.30;1.73;;;19.00;53.00;;;;;;5070937;28;20583;-69
2023/09/02 01:47:58;;;;;;;8.60;2.20;;;19.00;52.10;;;;;;5069542;28;20201;-67
2023/09/02 01:50:29;;;;;;;4.40;1.57;;;18.90;52.90;;;;;;5074706;28;20569;-69
2023/09/02 01:52:58;;;;;;;5.67;1.80;;;19.10;51.50;;;;;;5070357;28;20175;-70
2023/09/02 01:55:26;;;;;;;7.70;1.67;;;19.20;51.40;;;;;;5074631;28;20175;-66
2023/09/02 01:57:56;;;;;;;4.60;1.30;;;19.20;51.60;;;;;;5074965;28;20175;-70
2023/09/02 02:00:23;;;;;;;3.03;1.20;;;19.30;50.90;;;;;;5074863;28;20252;-70
2023/09/02 02:02:54;;;;;;;6.73;1.60;;;19.30;50.00;;;;;;5073489;28;20191;-66
2023/09/02 02:05:46;;;;;;;3.37;1.30;;;19.00;51.30;;;;;;5074965;28;20186;-72
2023/09/02 02:08:24;;;;;;;2.73;1.17;;;19.50;51.60;;;;;;5069712;28;20187;-66
2023/09/02 02:10:56;;;;;;;9.17;1.40;;;19.70;51.80;;;;;;5074420;28;20201;-69
2023/09/02 02:13:23;;;;;;;6.67;1.60;;;19.70;50.70;;;;;;5074633;28;20198;-68
2023/09/02 02:15:50;;;;;;;2.97;1.30;;;19.70;51.10;;;;;;5072397;28;20187;-67
2023/09/02 02:18:18;;;;;;;6.87;1.70;;;19.50;52.20;;;;;;5074609;28;20636;-70
2023/09/02 02:21:02;;;;;;;6.03;1.70;;;19.90;51.20;;;;;;5073600;28;20877;-67
2023/09/02 02:23:30;;;;;;;4.03;1.23;;;19.90;51.40;;;;;;5072473;28;20575;-72
2023/09/02 02:26:01;;;;;;;6.50;1.50;;;20.20;50.10;;;;;;5071734;28;20182;-69
2023/09/02 02:28:32;;;;;;;4.67;1.30;;;20.60;49.00;;;;;;5074051;28;20598;-69
2023/09/02 02:31:00;;;;;;;5.20;1.20;;;20.30;50.10;;;;;;5074367;28;20175;-69
2023/09/02 02:33:27;;;;;;;6.33;1.30;;;20.50;50.00;;;;;;5074229;28;20183;-70
2023/09/02 02:35:54;;;;;;;7.53;1.20;;;20.20;50.40;;;;;;5070969;28;20187;-67
2023/09/02 02:38:22;;;;;;;4.33;1.17;;;20.20;50.50;;;;;;5074266;28;20171;-66
2023/09/02 02:40:49;;;;;;;5.27;1.33;;;20.70;49.50;;;;;;5073793;28;20253;-67
2023/09/02 02:43:16;;;;;;;4.20;1.30;;;20.80;48.60;;;;;;5072845;28;20533;-67
2023/09/02 02:45:44;;;;;;;7.60;1.33;;;21.00;48.40;;;;;;5070958;28;20710;-67
2023/09/02 02:48:15;;;;;;;5.20;1.60;;;20.80;48.50;;;;;;5074314;28;20197;-67
2023/09/02 02:50:42;;;;;;;4.17;1.40;;;20.50;49.30;;;;;;5071218;28;20175;-68
2023/09/02 02:53:10;;;;;;;3.83;1.10;;;20.60;49.00;;;;;;5074182;28;20183;-67
2023/09/02 02:55:37;;;;;;;5.17;1.20;;;20.90;48.00;;;;;;5072210;28;20613;-67
2023/09/02 02:58:04;;;;;;;5.00;1.50;;;20.70;48.30;;;;;;5073605;28;20186;-65
2023/09/02 03:00:32;;;;;;;5.27;1.33;;;20.50;48.90;;;;;;5071623;28;20613;-67
2023/09/02 03:03:00;;;;;;;4.47;1.20;;;20.70;48.00;;;;;;5073891;28;20180;-66
2023/09/02 03:05:27;;;;;;;21.70;2.03;;;20.80;47.30;;;;;;5073091;28;20182;-67
2023/09/02 03:07:54;;;;;;;5.37;1.37;;;20.80;47.70;;;;;;5070215;28;20249;-68
2023/09/02 03:10:22;;;;;;;6.07;1.33;;;20.70;48.70;;;;;;5072270;28;20188;-66
2023/09/02 03:12:49;;;;;;;7.03;1.30;;;21.10;46.90;;;;;;5073328;28;20244;-66
2023/09/02 03:15:16;;;;;;;4.47;1.30;;;21.30;46.50;;;;;;5072791;28;20524;-67
2023/09/02 03:17:44;;;;;;;4.60;1.50;;;21.10;47.40;;;;;;5071026;28;20171;-67
2023/09/02 03:20:11;;;;;;;6.23;1.47;;;21.10;47.80;;;;;;5071920;28;20549;-68
2023/09/02 03:22:43;;;;;;;5.70;1.30;;;21.40;46.50;;;;;;5072828;28;20183;-66
2023/09/02 03:25:11;;;;;;;5.73;1.20;;;21.10;47.40;;;;;;5073492;28;20190;-67
2023/09/02 03:27:39;;;;;;;8.10;1.67;;;21.30;47.20;;;;;;5072084;28;20206;-69
2023/09/02 03:30:09;;;;;;;5.10;1.00;;;21.50;46.60;;;;;;5073433;28;20187;-69
2023/09/02 03:32:37;;;;;;;4.00;1.13;;;21.30;46.30;;;;;;5073083;28;20171;-67
2023/09/02 03:35:07;;;;;;;8.90;1.23;;;20.90;46.80;;;;;;5072312;28;20175;-71
2023/09/02 03:37:34;;;;;;;3.50;1.20;;;21.10;46.90;;;;;;5071426;28;20183;-70
2023/09/02 03:40:03;;;;;;;6.37;1.27;;;21.30;47.40;;;;;;5071674;28;20211;-70
2023/09/02 03:42:30;;;;;;;4.73;0.90;;;21.50;46.60;;;;;;5071304;28;20207;-68
2023/09/02 03:44:59;;;;;;;5.77;1.20;;;21.20;47.10;;;;;;5073193;28;20281;-71
2023/09/02 03:47:32;;;;;;;3.63;1.10;;;20.80;47.70;;;;;;5072485;28;20180;-72
2023/09/02 03:50:02;;;;;;;2.83;0.93;;;20.30;49.30;;;;;;5071078;28;20262;-69
2023/09/02 03:52:30;;;;;;;5.23;1.50;;;20.60;48.80;;;;;;5072703;28;20191;-70
2023/09/02 03:54:58;;;;;;;4.20;1.00;;;21.30;47.80;;;;;;5066794;28;20183;-72
2023/09/02 03:57:25;;;;;;;4.20;1.23;;;21.30;47.80;;;;;;5070527;28;20202;-73
2023/09/02 03:59:53;;;;;;;4.67;1.27;;;21.70;47.30;;;;;;5072961;28;20270;-73
2023/09/02 04:02:21;;;;;;;4.43;1.43;;;21.80;46.30;;;;;;5072231;28;20329;-69
2023/09/02 04:04:48;;;;;;;5.47;1.27;;;21.60;47.70;;;;;;5072323;28;20179;-70
2023/09/02 04:07:15;;;;;;;7.27;1.20;;;22.20;47.30;;;;;;5072371;28;20183;-72
2023/09/02 04:09:42;;;;;;;4.93;1.40;;;22.00;48.10;;;;;;5071925;28;20617;-72
2023/09/02 04:12:10;;;;;;;5.73;1.30;;;22.00;48.60;;;;;;5071735;28;20542;-74
2023/09/02 04:14:37;;;;;;;10.03;1.73;;;21.50;50.70;;;;;;5072865;28;20263;-71
2023/09/02 04:17:04;;;;;;;5.53;1.37;;;22.10;50.80;;;;;;5073493;28;20199;-68
2023/09/02 04:19:33;;;;;;;6.67;1.30;;;22.20;49.20;;;;;;5073517;28;20240;-68
2023/09/02 04:22:00;;;;;;;7.50;1.50;;;21.70;49.90;;;;;;5072768;28;20254;-71
2023/09/02 04:24:28;;;;;;;4.27;1.23;;;22.30;47.90;;;;;;5072248;28;20190;-68
2023/09/02 04:26:57;;;;;;;7.23;1.37;;;22.00;48.30;;;;;;5071896;28;20248;-68
2023/09/02 04:29:24;;;;;;;4.97;1.33;;;22.00;49.10;;;;;;5069185;28;20172;-69
2023/09/02 04:31:53;;;;;;;5.63;1.40;;;22.00;48.50;;;;;;5063165;28;20232;-72
2023/09/02 04:34:20;;;;;;;5.70;1.20;;;21.80;47.70;;;;;;5074344;28;20240;-72
2023/09/02 04:36:48;;;;;;;5.37;1.10;;;22.40;46.00;;;;;;5070766;28;20219;-72
2023/09/02 04:39:15;;;;;;;4.20;1.20;;;22.30;45.40;;;;;;5073121;28;20546;-71
2023/09/02 04:41:43;;;;;;;3.93;1.30;;;22.60;45.60;;;;;;5075536;28;20231;-73
2023/09/02 04:44:10;;;;;;;3.07;1.03;;;22.70;45.40;;;;;;5075165;28;20183;-73
2023/09/02 04:46:38;;;;;;;5.40;1.60;;;22.80;44.60;;;;;;5075270;28;20203;-72
2023/09/02 04:49:05;;;;;;;5.93;1.30;;;22.80;44.70;;;;;;5076037;28;20191;-72
2023/09/02 04:51:32;;;;;;;3.97;1.20;;;22.60;45.60;;;;;;5074061;28;20183;-72
2023/09/02 04:54:00;;;;;;;5.63;1.00;;;23.40;44.20;;;;;;5076278;28;20186;-74
2023/09/02 04:56:27;;;;;;;4.87;1.20;;;23.40;43.80;;;;;;5076495;28;20210;-75
2023/09/02 04:58:55;;;;;;;3.47;0.90;;;22.80;43.60;;;;;;5078200;28;20192;-69
2023/09/02 05:01:22;;;;;;;3.07;0.93;;;23.10;43.10;;;;;;5077407;28;20211;-70
2023/09/02 05:03:50;;;;;;;4.33;0.90;;;22.80;43.40;;;;;;5073376;28;20202;-70
2023/09/02 05:06:17;;;;;;;6.93;1.10;;;23.00;44.60;;;;;;5075341;28;20198;-71
2023/09/02 05:08:45;;;;;;;3.20;1.03;;;22.50;44.70;;;;;;5071703;28;20225;-71
2023/09/02 05:11:12;;;;;;;5.53;1.27;;;22.50;45.40;;;;;;5075610;28;20672;-69
2023/09/02 05:13:40;;;;;;;3.30;1.13;;;22.90;45.30;;;;;;5072550;28;20261;-70
2023/09/02 05:16:07;;;;;;;4.73;1.13;;;23.20;43.50;;;;;;5070773;28;20179;-70
2023/09/02 05:18:34;;;;;;;5.70;1.07;;;23.60;42.60;;;;;;5071014;28;20593;-72
2023/09/02 05:21:02;;;;;;;3.07;0.90;;;23.30;44.40;;;;;;5070258;28;20287;-71
2023/09/02 05:23:29;;;;;;;3.07;0.97;;;23.20;43.70;;;;;;5074273;28;20182;-71
2023/09/02 05:25:57;;;;;;;2.57;0.90;;;23.20;43.20;;;;;;5075519;28;20174;-72
2023/09/02 05:28:25;;;;;;;4.93;1.23;;;23.30;44.10;;;;;;5075795;28;20209;-69
2023/09/02 05:30:53;;;;;;;4.97;1.00;;;23.30;44.30;;;;;;5075868;28;20176;-72
2023/09/02 05:33:21;;;;;;;3.47;1.10;;;23.20;44.60;;;;;;5072387;28;20171;-72
2023/09/02 05:35:49;;;;;;;3.27;1.00;;;22.80;44.70;;;;;;5074429;28;20278;-70
2023/09/02 05:38:17;;;;;;;3.90;1.20;;;23.00;45.60;;;;;;5072478;28;20240;-70
2023/09/02 05:40:44;;;;;;;8.53;1.27;;;22.80;44.30;;;;;;5074911;28;20230;-70
2023/09/02 05:43:12;;;;;;;8.53;1.47;;;22.80;44.70;;;;;;5075601;28;20525;-69
2023/09/02 05:45:39;;;;;;;3.13;1.00;;;23.10;45.60;;;;;;5074679;28;20216;-71
2023/09/02 05:48:07;;;;;;;6.80;1.40;;;22.90;45.20;;;;;;5074904;28;20214;-68
2023/09/02 05:50:35;;;;;;;4.87;1.20;;;22.90;45.90;;;;;;5072552;28;20270;-70
2023/09/02 05:53:02;;;;;;;2.77;0.90;;;23.10;44.60;;;;;;5075458;28;20174;-71
2023/09/02 05:55:31;;;;;;;3.23;0.90;;;22.90;44.70;;;;;;5074104;28;20183;-70
2023/09/02 05:57:58;;;;;;;4.50;1.27;;;22.40;44.80;;;;;;5075153;28;20187;-72
2023/09/02 06:00:25;;;;;;;5.50;1.20;;;22.90;44.10;;;;;;5074373;28;20660;-69
2023/09/02 06:02:53;;;;;;;7.23;1.30;;;23.50;43.90;;;;;;5075137;28;20236;-72
2023/09/02 06:05:20;;;;;;;3.13;1.00;;;23.30;44.80;;;;;;5075121;28;20179;-73
2023/09/02 06:07:48;;;;;;;7.53;1.40;;;22.80;45.80;;;;;;5074655;28;20179;-73
2023/09/02 06:10:15;;;;;;;5.40;1.17;;;22.80;45.40;;;;;;5075426;28;20516;-73
2023/09/02 06:12:42;;;;;;;5.23;1.33;;;22.70;45.60;;;;;;5074469;28;20186;-74
2023/09/02 06:15:10;;;;;;;2.70;0.97;;;22.70;46.60;;;;;;5075352;28;20175;-73
2023/09/02 06:17:37;;;;;;;3.23;1.10;;;22.70;46.70;;;;;;5074203;28;20183;-69
2023/09/02 06:20:05;;;;;;;3.47;1.20;;;22.70;47.50;;;;;;5074950;28;20194;-73
2023/09/02 06:22:33;;;;;;;9.37;2.50;;;22.70;47.10;;;;;;5074382;28;20596;-73
2023/09/02 06:25:00;;;;;;;7.23;1.77;;;22.60;47.10;;;;;;5074913;28;20190;-73
2023/09/02 06:27:29;;;;;;;5.67;1.20;;;22.50;47.50;;;;;;5073072;28;20191;-76
2023/09/02 06:29:56;;;;;;;2.40;1.03;;;21.90;48.50;;;;;;5068810;28;20190;-72
2023/09/02 06:32:24;;;;;;;4.70;1.30;;;22.20;47.50;;;;;;5074030;28;20273;-74
2023/09/02 06:34:53;;;;;;;6.63;1.53;;;21.90;47.90;;;;;;5070174;28;20188;-69
2023/09/02 06:37:21;;;;;;;7.57;3.63;;;21.80;48.20;;;;;;5073883;28;20268;-74
2023/09/02 06:39:56;;;;;;;5.60;2.00;;;21.70;49.30;;;;;;5072763;28;20548;-70
2023/09/02 06:42:24;;;;;;;4.03;1.27;;;21.40;50.00;;;;;;5068490;28;20210;-72
2023/09/02 06:44:54;;;;;;;5.57;1.50;;;21.60;49.60;;;;;;5070502;28;20274;-73
2023/09/02 06:47:22;;;;;;;3.07;1.23;;;21.30;50.10;;;;;;5073856;28;20183;-73
2023/09/02 06:49:49;;;;;;;2.97;1.10;;;21.20;50.60;;;;;;5070399;28;20175;-70
2023/09/02 06:52:16;;;;;;;4.30;1.10;;;21.00;50.90;;;;;;5068699;28;20179;-71
2023/09/02 06:54:47;;;;;;;6.03;1.43;;;19.60;54.20;;;;;;5073504;28;20637;-71
2023/09/02 06:57:14;;;;;;;8.70;1.30;;;18.90;56.80;;;;;;5066272;28;20179;-68
2023/09/02 06:59:42;;;;;;;5.00;1.33;;;18.50;57.90;;;;;;5054955;28;20198;-72
2023/09/02 07:02:09;;;;;;;5.37;2.67;;;18.30;58.30;;;;;;5071250;28;20738;-72
2023/09/02 07:04:36;;;;;;;7.07;3.13;;;18.00;60.10;;;;;;5073573;28;20179;-71
2023/09/02 07:07:04;;;;;;;5.80;2.73;;;18.00;60.20;;;;;;5073731;28;20182;-72
2023/09/02 07:09:31;;;;;;;4.37;1.20;;;17.80;61.10;;;;;;5071085;28;20600;-74
2023/09/02 07:11:58;;;;;;;7.97;1.47;;;17.60;62.20;;;;;;5074050;28;20332;-74
2023/09/02 07:14:26;;;;;;;7.57;1.10;;;17.30;62.10;;;;;;5072313;28;20245;-73
2023/09/02 07:16:53;;;;;;;2.60;1.10;;;17.30;61.70;;;;;;5069773;28;20262;-72
2023/09/02 07:19:20;;;;;;;3.33;1.17;;;17.20;61.90;;;;;;5071612;28;20194;-67
2023/09/02 07:21:48;;;;;;;4.83;1.00;;;17.00;62.50;;;;;;5068670;28;20351;-69
2023/09/02 07:24:15;;;;;;;4.73;1.23;;;16.80;63.30;;;;;;5073140;28;20182;-73
2023/09/02 07:26:42;;;;;;;6.13;1.70;;;16.80;64.90;;;;;;5071933;28;20175;-70
2023/09/02 07:29:11;;;;;;;10.10;1.53;;;16.70;66.80;;;;;;5073373;28;21560;-73
2023/09/02 07:31:38;;;;;;;5.53;1.30;;;16.60;68.50;;;;;;5071752;28;20179;-72
2023/09/02 07:34:06;;;;;;;5.53;1.63;;;16.50;69.70;;;;;;5072285;28;20190;-67
2023/09/02 07:36:33;;;;;;;3.20;1.27;;;16.40;70.80;;;;;;5072580;28;20178;-69
2023/09/02 07:39:00;;;;;;;5.77;1.40;;;16.30;71.40;;;;;;5073354;28;20191;-69
2023/09/02 07:41:28;;;;;;;7.47;1.60;;;16.20;72.10;;;;;;5072067;28;20701;-72
2023/09/02 07:43:55;;;;;;;5.63;1.80;;;16.00;72.00;;;;;;5073081;28;20608;-67
2023/09/02 07:46:23;;;;;;;6.43;1.57;;;16.00;72.40;;;;;;5070721;28;20187;-68
2023/09/02 07:48:51;;;;;;;6.87;1.60;;;15.90;72.30;;;;;;5070279;28;20596;-75
2023/09/02 07:51:19;;;;;;;5.23;2.00;;;15.80;72.80;;;;;;5068676;28;20178;-68
2023/09/02 07:53:46;;;;;;;8.63;1.77;;;15.80;72.50;;;;;;5071357;28;20181;-70
2023/09/02 07:56:14;;;;;;;9.20;2.10;;;15.80;72.40;;;;;;5072501;28;20181;-72
2023/09/02 07:58:43;;;;;;;6.23;1.93;;;15.80;72.50;;;;;;5070677;28;20220;-72
2023/09/02 08:01:10;;;;;;;6.33;1.60;;;15.70;73.10;;;;;;5072358;28;20310;-73
2023/09/02 08:03:38;;;;;;;7.23;1.87;;;15.70;73.10;;;;;;5071227;28;20177;-71
2023/09/02 08:06:09;;;;;;;7.07;1.87;;;15.70;73.30;;;;;;5072379;28;20233;-75
2023/09/02 08:08:37;;;;;;;10.90;1.90;;;15.60;72.90;;;;;;5072540;28;20309;-71
2023/09/02 08:11:05;;;;;;;8.80;1.90;;;15.60;73.10;;;;;;5072589;28;20177;-72
2023/09/02 08:13:34;;;;;;;3.83;1.43;;;15.50;73.30;;;;;;5070548;28;20183;-71
2023/09/02 08:16:05;;;;;;;4.13;1.60;;;15.30;73.50;;;;;;5067442;28;20196;-73
2023/09/02 08:18:34;;;;;;;6.53;1.83;;;15.30;73.80;;;;;;5068904;28;20638;-73
2023/09/02 08:21:11;;;;;;;7.07;1.63;;;15.30;74.00;;;;;;5067680;28;20663;-72
2023/09/02 08:23:39;;;;;;;6.60;1.97;;;15.30;74.20;;;;;;5067354;28;20639;-70
2023/09/02 08:26:15;;;;;;;9.87;2.10;;;15.30;73.90;;;;;;5067055;28;20195;-72
2023/09/02 08:28:44;;;;;;;9.70;2.63;;;15.30;74.20;;;;;;5068049;28;20183;-68
2023/09/02 08:31:15;;;;;;;5.63;2.40;;;15.30;74.40;;;;;;5071172;28;20202;-72
2023/09/02 08:33:42;;;;;;;7.13;2.20;;;15.30;74.50;;;;;;5075189;28;20179;-70
2023/09/02 08:36:15;;;;;;;6.90;2.00;;;15.30;74.40;;;;;;5071700;28;20672;-68
2023/09/02 08:38:43;;;;;;;6.23;2.40;;;15.30;74.60;;;;;;5071749;28;20240;-68
2023/09/02 08:41:27;;;;;;;7.17;2.40;;;15.20;75.10;;;;;;5070742;28;20233;-71
2023/09/02 08:43:55;;;;;;;7.13;2.53;;;15.30;74.80;;;;;;5069239;28;20183;-69
2023/09/02 08:46:30;;;;;;;7.27;3.13;;;15.30;74.70;;;;;;5071652;28;20183;-69
2023/09/02 08:48:58;;;;;;;6.67;2.63;;;15.20;74.90;;;;;;5065614;28;20254;-69
2023/09/02 08:51:27;;;;;;;8.67;2.67;;;15.20;74.70;;;;;;5071155;28;20232;-71
2023/09/02 08:53:59;;;;;;;7.13;2.47;;;15.20;75.20;;;;;;5063618;28;20175;-70
2023/09/02 08:56:27;;;;;;;6.63;2.63;;;15.10;74.80;;;;;;5066625;28;20523;-71
2023/09/02 08:58:55;;;;;;;10.83;3.20;;;15.00;74.90;;;;;;5067572;28;20551;-70
2023/09/02 09:01:23;;;;;;;9.87;2.50;;;15.00;75.30;;;;;;5068395;28;20227;-68
2023/09/02 09:03:54;;;;;;;8.40;3.33;;;15.00;74.90;;;;;;5066878;28;20184;-71
2023/09/02 09:06:25;;;;;;;6.23;2.60;;;14.90;75.00;;;;;;5067192;28;20183;-70
2023/09/02 09:08:55;;;;;;;9.03;3.10;;;14.90;75.00;;;;;;5068046;28;20198;-68
2023/09/02 09:11:23;;;;;;;7.53;3.43;;;14.90;75.10;;;;;;5069637;28;20176;-69
2023/09/02 09:13:53;;;;;;;7.33;2.87;;;14.90;75.20;;;;;;5066416;28;20183;-69
2023/09/02 09:16:33;;;;;;;5.93;2.33;;;14.90;75.20;;;;;;5068492;28;20709;-68
2023/09/02 09:19:04;;;;;;;9.97;3.43;;;14.80;75.30;;;;;;5070122;28;20183;-67
2023/09/02 09:21:31;;;;;;;11.80;3.90;;;14.80;75.50;;;;;;5068397;28;20213;-70
2023/09/02 09:23:59;;;;;;;9.03;3.10;;;14.80;75.60;;;;;;5070593;28;20547;-70
2023/09/02 09:26:26;;;;;;;8.37;3.70;;;14.70;75.50;;;;;;5070140;28;20643;-67
2023/09/02 09:28:56;;;;;;;8.27;3.10;;;14.70;75.90;;;;;;5071098;28;20179;-69
2023/09/02 09:31:25;;;;;;;9.10;3.00;;;14.70;75.90;;;;;;5067359;28;20191;-71
2023/09/02 09:34:00;;;;;;;11.90;3.27;;;14.70;76.00;;;;;;5070453;28;20548;-69
2023/09/02 09:36:29;;;;;;;10.57;3.43;;;14.70;76.20;;;;;;5068570;28;20178;-67
2023/09/02 09:39:01;;;;;;;7.43;3.53;;;14.70;76.40;;;;;;5061423;28;20595;-67
2023/09/02 09:41:29;;;;;;;12.13;3.30;;;14.70;76.30;;;;;;5064608;28;20242;-71
2023/09/02 09:44:08;;;;;;;7.47;2.90;;;14.60;76.30;;;;;;5062390;28;20558;-71
2023/09/02 09:46:56;;;;;;;9.80;3.23;;;14.70;76.50;;;;;;5066581;28;20237;-68
2023/09/02 09:49:31;;;;;;;10.10;3.27;;;14.60;76.40;;;;;;5065916;28;20188;-72
2023/09/02 09:52:02;;;;;;;5.57;2.93;;;14.60;76.50;;;;;;5066559;28;20183;-71
2023/09/02 09:54:47;;;;;;;11.90;3.53;;;14.60;76.60;;;;;;5070253;28;20183;-72
2023/09/02 09:57:35;;;;;;;11.40;3.27;;;14.60;76.80;;;;;;5067901;28;20210;-68
2023/09/02 10:00:05;;;;;;;8.33;2.50;;;14.60;76.50;;;;;;5069485;28;20207;-69
2023/09/02 10:02:32;;;;;;;9.27;3.93;;;14.50;76.40;;;;;;5069783;28;20302;-67
2023/09/02 10:05:01;;;;;;;12.13;2.70;;;14.50;76.50;;;;;;5071235;28;20186;-71
2023/09/02 10:07:35;;;;;;;8.10;3.47;;;14.40;76.60;;;;;;5072631;28;20245;-69
2023/09/02 10:10:05;;;;;;;7.87;3.53;;;14.40;76.90;;;;;;5074923;28;20263;-71
2023/09/02 10:12:36;;;;;;;9.53;3.80;;;14.40;77.00;;;;;;5074293;28;20187;-67
2023/09/02 10:15:04;;;;;;;4.53;2.37;;;14.40;76.90;;;;;;5074797;28;20179;-71
2023/09/02 10:17:31;;;;;;;12.33;3.10;;;14.40;77.00;;;;;;5070209;28;20195;-71
2023/09/02 10:19:59;;;;;;;4.93;2.73;;;14.30;77.00;;;;;;5074770;28;20241;-67
2023/09/02 10:22:31;;;;;;;9.40;3.30;;;14.30;77.10;;;;;;5074963;28;20214;-66
2023/09/02 10:25:16;;;;;;;8.97;3.63;;;14.30;77.30;;;;;;5073514;28;20182;-67
2023/09/02 10:27:47;;;;;;;7.50;2.97;;;14.30;77.30;;;;;;5074229;28;20212;-66
2023/09/02 10:30:30;;;;;;;6.80;2.40;;;14.30;77.30;;;;;;5073048;28;20715;-67
2023/09/02 10:33:08;;;;;;;9.70;3.13;;;14.30;77.40;;;;;;5071911;28;20183;-68
2023/09/02 10:35:42;;;;;;;5.87;2.47;;;14.40;77.70;;;;;;5073969;28;20253;-66
2023/09/02 10:38:16;;;;;;;8.47;3.20;;;14.50;77.50;;;;;;5072509;28;20186;-66
2023/09/02 10:40:49;;;;;;;9.27;3.47;;;14.50;77.40;;;;;;5073804;28;20262;-66
2023/09/02 10:43:17;;;;;;;7.30;2.70;;;14.50;77.50;;;;;;5074187;28;20214;-67
2023/09/02 10:45:46;;;;;;;9.30;3.53;;;14.50;77.50;;;;;;5072758;28;20184;-67
2023/09/02 10:48:14;;;;;;;6.67;2.53;;;14.50;77.20;;;;;;5071854;28;20582;-67
2023/09/02 10:50:42;;;;;;;9.87;3.43;;;14.50;77.20;;;;;;5079058;28;20184;-67
2023/09/02 10:53:10;;;;;;;9.10;3.07;;;14.50;77.20;;;;;;5073122;28;20179;-66
2023/09/02 10:56:01;;;;;;;5.53;2.87;;;14.40;77.30;;;;;;5073730;28;20272;-67
2023/09/02 10:58:45;;;;;;;10.13;3.20;;;14.30;77.30;;;;;;5073209;28;20884;-66
2023/09/02 11:01:12;;;;;;;8.03;3.23;;;14.40;77.50;;;;;;5074198;28;20212;-67
2023/09/02 11:03:49;;;;;;;9.83;3.10;;;14.40;77.80;;;;;;5072495;28;20222;-68
2023/09/02 11:06:17;;;;;;;9.20;2.97;;;14.40;77.70;;;;;;5068620;28;20183;-69
2023/09/02 11:08:48;;;;;;;8.20;2.57;;;14.40;77.90;;;;;;5074055;28;20657;-67
2023/09/02 11:11:18;;;;;;;5.33;2.47;;;14.40;77.80;;;;;;5073917;28;20187;-69
2023/09/02 11:14:07;;;;;;;8.57;3.37;;;14.50;77.60;;;;;;5071283;28;20673;-70
2023/09/02 11:16:35;;;;;;;6.87;3.23;;;14.60;77.60;;;;;;5071665;28;20236;-68
2023/09/02 11:19:08;;;;;;;12.87;3.50;;;14.60;77.40;;;;;;5070635;28;20183;-69
2023/09/02 11:21:48;;;;;;;8.53;4.03;;;14.70;77.30;;;;;;5069714;28;20294;-68
2023/09/02 11:24:22;;;;;;;5.37;3.43;;;14.60;77.60;;;;;;5071815;28;20187;-68
2023/09/02 11:27:08;;;;;;;5.60;3.00;;;14.70;77.70;;;;;;5075128;28;20229;-70
2023/09/02 11:29:35;;;;;;;12.83;3.00;;;14.60;76.90;;;;;;5078835;28;20638;-70
2023/09/02 11:32:04;;;;;;;9.33;3.30;;;14.70;77.20;;;;;;5074556;28;20188;-74
2023/09/02 11:34:32;;;;;;;7.60;3.07;;;14.80;77.30;;;;;;5077931;28;20191;-71
2023/09/02 11:37:03;;;;;;;7.60;3.40;;;14.80;77.30;;;;;;5077160;28;20207;-73
2023/09/02 11:39:34;;;;;;;7.33;3.37;;;14.80;76.80;;;;;;5078723;28;20182;-73
2023/09/02 11:42:12;;;;;;;5.77;3.30;;;14.80;77.10;;;;;;5076248;28;20206;-72
2023/09/02 11:44:50;;;;;;;8.77;3.40;;;14.80;76.80;;;;;;5076794;28;20269;-72
2023/09/02 11:47:21;;;;;;;9.10;4.40;;;14.80;77.10;;;;;;5073398;28;20564;-71
2023/09/02 11:49:48;;;;;;;6.13;4.00;;;14.80;77.00;;;;;;5072014;28;20193;-72
2023/09/02 11:52:20;;;;;;;14.33;4.60;;;14.70;77.00;;;;;;5073195;28;20214;-68
2023/09/02 11:54:48;;;;;;;11.20;4.20;;;14.70;77.50;;;;;;5072845;28;20270;-66
2023/09/02 11:57:18;;;;;;;11.17;5.00;;;14.60;77.30;;;;;;5073798;28;20199;-66
2023/09/02 11:59:45;;;;;;;10.07;5.00;;;14.60;77.60;;;;;;5070145;28;20210;-71
2023/09/02 12:02:17;;;;;;;13.33;5.27;;;14.60;77.90;;;;;;5076185;28;20215;-70
2023/09/02 12:04:44;;;;;;;15.10;6.10;;;14.50;77.90;;;;;;5071870;28;20649;-70
2023/09/02 12:07:12;;;;;;;12.27;5.60;;;14.60;78.00;;;;;;5071362;28;20260;-70
2023/09/02 12:09:39;;;;;;;15.67;5.77;;;14.50;78.20;;;;;;5070808;28;20187;-70
2023/09/02 12:12:07;;;;;;;15.23;6.70;;;14.50;78.00;;;;;;5072606;28;20185;-70
2023/09/02 12:14:40;;;;;;;18.23;6.70;;;14.50;78.40;;;;;;5072129;28;20187;-70
2023/09/02 12:17:07;;;;;;;12.47;6.40;;;14.40;78.30;;;;;;5069535;28;20677;-71
2023/09/02 12:19:38;;;;;;;12.23;5.70;;;14.40;78.60;;;;;;5070778;28;20238;-71
2023/09/02 12:22:06;;;;;;;13.40;6.33;;;14.50;78.70;;;;;;5070768;28;20264;-70
2023/09/02 12:24:33;;;;;;;13.80;7.03;;;14.50;78.70;;;;;;5072221;28;20715;-71
2023/09/02 12:27:01;;;;;;;11.20;5.97;;;14.50;78.90;;;;;;5072229;28;20183;-70
2023/09/02 12:29:28;;;;;;;10.23;5.30;;;14.50;78.70;;;;;;5070157;28;20184;-71
2023/09/02 12:32:00;;;;;;;14.47;5.50;;;14.40;78.70;;;;;;5071344;28;20552;-71
2023/09/02 12:34:35;;;;;;;12.30;5.20;;;14.30;79.00;;;;;;5072034;28;20297;-71
2023/09/02 12:37:21;;;;;;;11.67;5.37;;;14.30;79.10;;;;;;5071426;28;20206;-70
2023/09/02 12:39:52;;;;;;;9.57;4.90;;;14.30;79.30;;;;;;5068598;28;20233;-71
2023/09/02 12:42:25;;;;;;;11.23;4.87;;;14.30;79.20;;;;;;5071140;28;20211;-72
2023/09/02 12:44:54;;;;;;;12.23;5.10;;;14.30;79.50;;;;;;5069395;28;20656;-73
2023/09/02 12:47:26;;;;;;;10.20;4.60;;;14.30;79.60;;;;;;5072657;28;20195;-70
2023/09/02 12:50:04;;;;;;;13.50;4.67;;;14.30;79.60;;;;;;5070631;28;20187;-70
2023/09/02 12:52:33;;;;;;;11.60;4.40;;;14.30;79.40;;;;;;5072154;28;20306;-69
2023/09/02 12:55:03;;;;;;;9.03;4.03;;;14.30;79.30;;;;;;5071999;28;20237;-70
2023/09/02 12:57:33;;;;;;;8.13;4.40;;;14.20;79.40;;;;;;5071511;28;20191;-66